sensor_id;sensor_type;location;lat;lon;timestamp;pressure;altitude;pressure_sealevel;temperature;humidity
10366;BME280;5229;41.820;23.490;2023-02-20T00:01:55;90130.63;;;12.16;42.19
10366;BME280;5229;41.820;23.490;2023-02-20T00:04:22;90133.03;;;12.21;41.74
10366;BME280;5229;41.820;23.490;2023-02-20T00:06:49;90120.34;;;12.19;41.98
10366;BME280;5229;41.820;23.490;2023-02-20T00:09:16;90130.00;;;12.19;42.20
10366;BME280;5229;41.820;23.490;2023-02-20T00:11:43;90140.72;;;12.17;41.91
10366;BME280;5229;41.820;23.490;2023-02-20T00:14:12;90136.72;;;12.20;42.00
10366;BME280;5229;41.820;23.490;2023-02-20T00:16:39;90143.13;;;12.22;42.06
10366;BME280;5229;41.820;23.490;2023-02-20T00:19:06;90147.25;;;12.23;42.23
10366;BME280;5229;41.820;23.490;2023-02-20T00:21:33;90138.72;;;12.23;42.04
10366;BME280;5229;41.820;23.490;2023-02-20T00:23:59;90127.22;;;12.24;41.70
10366;BME280;5229;41.820;23.490;2023-02-20T00:26:26;90134.41;;;12.27;41.64
10366;BME280;5229;41.820;23.490;2023-02-20T00:28:53;90126.94;;;12.25;42.02
10366;BME280;5229;41.820;23.490;2023-02-20T00:31:21;90123.41;;;12.21;42.86
10366;BME280;5229;41.820;23.490;2023-02-20T00:33:48;90116.06;;;12.15;42.38
10366;BME280;5229;41.820;23.490;2023-02-20T00:36:16;90130.31;;;12.09;42.08
10366;BME280;5229;41.820;23.490;2023-02-20T00:38:43;90138.75;;;12.06;42.47
10366;BME280;5229;41.820;23.490;2023-02-20T00:41:11;90147.16;;;12.03;41.83
10366;BME280;5229;41.820;23.490;2023-02-20T00:43:39;90145.47;;;11.98;42.53
10366;BME280;5229;41.820;23.490;2023-02-20T00:46:06;90162.13;;;11.88;42.71
10366;BME280;5229;41.820;23.490;2023-02-20T00:48:34;90172.69;;;11.83;42.78
10366;BME280;5229;41.820;23.490;2023-02-20T00:51:01;90165.03;;;11.78;43.14
10366;BME280;5229;41.820;23.490;2023-02-20T00:53:27;90174.38;;;11.71;43.50
10366;BME280;5229;41.820;23.490;2023-02-20T00:55:54;90178.00;;;11.61;44.15
10366;BME280;5229;41.820;23.490;2023-02-20T00:58:21;90178.75;;;11.53;43.89
10366;BME280;5229;41.820;23.490;2023-02-20T01:00:47;90166.81;;;11.44;44.68
10366;BME280;5229;41.820;23.490;2023-02-20T01:03:14;90176.13;;;11.36;44.04
10366;BME280;5229;41.820;23.490;2023-02-20T01:05:42;90169.09;;;11.28;44.93
10366;BME280;5229;41.820;23.490;2023-02-20T01:08:09;90163.59;;;11.21;44.69
10366;BME280;5229;41.820;23.490;2023-02-20T01:10:36;90167.84;;;11.17;45.01
10366;BME280;5229;41.820;23.490;2023-02-20T01:13:03;90171.03;;;11.14;44.93
10366;BME280;5229;41.820;23.490;2023-02-20T01:15:30;90161.75;;;11.13;44.76
10366;BME280;5229;41.820;23.490;2023-02-20T01:17:56;90147.69;;;11.14;45.35
10366;BME280;5229;41.820;23.490;2023-02-20T01:20:23;90138.84;;;11.15;45.11
10366;BME280;5229;41.820;23.490;2023-02-20T01:22:51;90141.44;;;11.15;44.39
10366;BME280;5229;41.820;23.490;2023-02-20T01:25:18;90139.59;;;11.16;44.87
10366;BME280;5229;41.820;23.490;2023-02-20T01:27:45;90134.13;;;11.17;44.65
10366;BME280;5229;41.820;23.490;2023-02-20T01:30:12;90136.41;;;11.19;44.26
10366;BME280;5229;41.820;23.490;2023-02-20T01:32:39;90136.09;;;11.20;44.38
10366;BME280;5229;41.820;23.490;2023-02-20T01:35:06;90135.50;;;11.23;43.43
10366;BME280;5229;41.820;23.490;2023-02-20T01:37:33;90137.03;;;11.24;44.23
10366;BME280;5229;41.820;23.490;2023-02-20T01:40:03;90133.81;;;11.27;43.37
10366;BME280;5229;41.820;23.490;2023-02-20T01:42:31;90134.28;;;11.29;43.62
10366;BME280;5229;41.820;23.490;2023-02-20T01:45:17;90142.38;;;11.28;43.32
10366;BME280;5229;41.820;23.490;2023-02-20T01:47:45;90147.25;;;11.29;43.48
10366;BME280;5229;41.820;23.490;2023-02-20T01:50:12;90147.84;;;11.26;43.30
10366;BME280;5229;41.820;23.490;2023-02-20T01:52:41;90146.19;;;11.22;43.02
10366;BME280;5229;41.820;23.490;2023-02-20T01:55:13;90135.31;;;11.11;43.30
10366;BME280;5229;41.820;23.490;2023-02-20T01:57:44;90135.16;;;10.99;44.09
10366;BME280;5229;41.820;23.490;2023-02-20T02:00:15;90132.34;;;10.87;44.26
10366;BME280;5229;41.820;23.490;2023-02-20T02:02:47;90131.59;;;10.78;44.83
10366;BME280;5229;41.820;23.490;2023-02-20T02:05:16;90132.63;;;10.69;45.09
10366;BME280;5229;41.820;23.490;2023-02-20T02:07:43;90141.41;;;10.59;45.01
10366;BME280;5229;41.820;23.490;2023-02-20T02:10:13;90145.81;;;10.50;45.14
10366;BME280;5229;41.820;23.490;2023-02-20T02:12:45;90155.84;;;10.43;45.24
10366;BME280;5229;41.820;23.490;2023-02-20T02:15:14;90154.16;;;10.39;45.66
10366;BME280;5229;41.820;23.490;2023-02-20T02:17:54;90159.47;;;10.34;45.08
10366;BME280;5229;41.820;23.490;2023-02-20T02:20:50;90158.84;;;10.28;45.25
10366;BME280;5229;41.820;23.490;2023-02-20T02:26:53;90171.09;;;10.14;45.52
10366;BME280;5229;41.820;23.490;2023-02-20T02:29:43;90181.84;;;10.08;45.96
10366;BME280;5229;41.820;23.490;2023-02-20T02:32:30;90192.03;;;10.04;46.10
10366;BME280;5229;41.820;23.490;2023-02-20T02:35:38;90194.72;;;9.99;46.54
10366;BME280;5229;41.820;23.490;2023-02-20T02:38:16;90196.56;;;9.99;46.48
10366;BME280;5229;41.820;23.490;2023-02-20T02:40:52;90208.75;;;9.98;46.44
10366;BME280;5229;41.820;23.490;2023-02-20T02:43:26;90207.22;;;9.97;46.41
10366;BME280;5229;41.820;23.490;2023-02-20T02:46:00;90200.69;;;10.00;46.56
10366;BME280;5229;41.820;23.490;2023-02-20T02:48:34;90210.25;;;9.99;46.53
10366;BME280;5229;41.820;23.490;2023-02-20T02:51:06;90205.09;;;9.99;46.91
10366;BME280;5229;41.820;23.490;2023-02-20T02:53:36;90197.63;;;9.98;46.90
10366;BME280;5229;41.820;23.490;2023-02-20T02:56:03;90208.75;;;9.98;46.23
10366;BME280;5229;41.820;23.490;2023-02-20T02:58:46;90211.81;;;10.00;46.38
10366;BME280;5229;41.820;23.490;2023-02-20T03:01:14;90217.94;;;10.04;46.08
10366;BME280;5229;41.820;23.490;2023-02-20T03:03:43;90225.16;;;10.07;46.29
10366;BME280;5229;41.820;23.490;2023-02-20T03:06:13;90231.84;;;10.08;45.69
10366;BME280;5229;41.820;23.490;2023-02-20T03:08:49;90233.88;;;10.11;45.21
10366;BME280;5229;41.820;23.490;2023-02-20T03:11:22;90237.97;;;10.12;44.98
10366;BME280;5229;41.820;23.490;2023-02-20T03:13:53;90243.44;;;10.11;45.20
10366;BME280;5229;41.820;23.490;2023-02-20T03:16:44;90246.63;;;10.08;45.11
10366;BME280;5229;41.820;23.490;2023-02-20T03:19:24;90241.72;;;10.06;45.27
10366;BME280;5229;41.820;23.490;2023-02-20T03:21:53;90251.06;;;10.07;45.22
10366;BME280;5229;41.820;23.490;2023-02-20T03:24:24;90253.34;;;10.09;45.13
10366;BME280;5229;41.820;23.490;2023-02-20T03:26:54;90253.66;;;10.07;44.95
10366;BME280;5229;41.820;23.490;2023-02-20T03:29:24;90244.81;;;10.08;44.93
10366;BME280;5229;41.820;23.490;2023-02-20T03:31:56;90254.59;;;10.11;44.13
10366;BME280;5229;41.820;23.490;2023-02-20T03:34:42;90259.88;;;10.06;44.05
10366;BME280;5229;41.820;23.490;2023-02-20T03:37:29;90260.91;;;10.05;44.09
10366;BME280;5229;41.820;23.490;2023-02-20T03:40:17;90259.56;;;10.08;44.63
10366;BME280;5229;41.820;23.490;2023-02-20T03:43:05;90254.19;;;10.04;44.37
10366;BME280;5229;41.820;23.490;2023-02-20T03:45:50;90264.00;;;10.07;44.32
10366;BME280;5229;41.820;23.490;2023-02-20T03:48:21;90269.75;;;10.04;44.92
10366;BME280;5229;41.820;23.490;2023-02-20T03:50:50;90269.56;;;10.01;45.35
10366;BME280;5229;41.820;23.490;2023-02-20T03:53:34;90284.16;;;9.97;45.72
10366;BME280;5229;41.820;23.490;2023-02-20T03:56:05;90290.09;;;9.97;46.16
10366;BME280;5229;41.820;23.490;2023-02-20T03:58:36;90292.69;;;9.97;46.36
10366;BME280;5229;41.820;23.490;2023-02-20T04:01:07;90285.34;;;9.91;46.41
10366;BME280;5229;41.820;23.490;2023-02-20T04:03:39;90285.44;;;9.86;47.04
10366;BME280;5229;41.820;23.490;2023-02-20T04:06:08;90269.72;;;9.82;47.59
10366;BME280;5229;41.820;23.490;2023-02-20T04:08:38;90276.53;;;9.78;47.21
10366;BME280;5229;41.820;23.490;2023-02-20T04:11:14;90277.13;;;9.75;47.35
10366;BME280;5229;41.820;23.490;2023-02-20T04:13:43;90267.34;;;9.72;47.43
10366;BME280;5229;41.820;23.490;2023-02-20T04:16:10;90260.03;;;9.74;46.76
10366;BME280;5229;41.820;23.490;2023-02-20T04:18:37;90260.81;;;9.75;46.66
10366;BME280;5229;41.820;23.490;2023-02-20T04:21:09;90269.06;;;9.77;46.06
10366;BME280;5229;41.820;23.490;2023-02-20T04:23:41;90276.53;;;9.78;45.77
10366;BME280;5229;41.820;23.490;2023-02-20T04:26:15;90271.38;;;9.78;45.62
10366;BME280;5229;41.820;23.490;2023-02-20T04:28:43;90270.59;;;9.78;45.55
10366;BME280;5229;41.820;23.490;2023-02-20T04:31:12;90271.66;;;9.77;44.97
10366;BME280;5229;41.820;23.490;2023-02-20T04:33:39;90268.28;;;9.76;45.05
10366;BME280;5229;41.820;23.490;2023-02-20T04:36:07;90282.31;;;9.75;44.93
10366;BME280;5229;41.820;23.490;2023-02-20T04:38:33;90275.56;;;9.74;44.74
10366;BME280;5229;41.820;23.490;2023-02-20T04:41:00;90280.75;;;9.74;44.04
10366;BME280;5229;41.820;23.490;2023-02-20T04:43:28;90280.00;;;9.74;44.30
10366;BME280;5229;41.820;23.490;2023-02-20T04:45:55;90292.47;;;9.72;43.94
10366;BME280;5229;41.820;23.490;2023-02-20T04:48:22;90307.81;;;9.68;43.95
10366;BME280;5229;41.820;23.490;2023-02-20T04:50:48;90311.75;;;9.66;44.12
10366;BME280;5229;41.820;23.490;2023-02-20T04:53:15;90305.81;;;9.65;43.34
10366;BME280;5229;41.820;23.490;2023-02-20T04:55:42;90318.75;;;9.65;43.53
10366;BME280;5229;41.820;23.490;2023-02-20T04:58:09;90305.31;;;9.63;43.74
10366;BME280;5229;41.820;23.490;2023-02-20T05:00:37;90302.72;;;9.63;43.76
10366;BME280;5229;41.820;23.490;2023-02-20T05:03:04;90314.72;;;9.59;43.65
10366;BME280;5229;41.820;23.490;2023-02-20T05:05:30;90325.06;;;9.59;43.98
10366;BME280;5229;41.820;23.490;2023-02-20T05:08:00;90333.13;;;9.58;43.56
10366;BME280;5229;41.820;23.490;2023-02-20T05:10:29;90320.47;;;9.56;43.67
10366;BME280;5229;41.820;23.490;2023-02-20T05:12:56;90310.69;;;9.53;43.71
10366;BME280;5229;41.820;23.490;2023-02-20T05:15:23;90319.06;;;9.50;43.48
10366;BME280;5229;41.820;23.490;2023-02-20T05:17:52;90318.56;;;9.48;43.89
10366;BME280;5229;41.820;23.490;2023-02-20T05:20:19;90330.56;;;9.44;43.81
10366;BME280;5229;41.820;23.490;2023-02-20T05:23:06;90330.66;;;9.39;44.29
10366;BME280;5229;41.820;23.490;2023-02-20T05:25:32;90324.22;;;9.37;44.37
10366;BME280;5229;41.820;23.490;2023-02-20T05:27:58;90336.69;;;9.35;44.37
10366;BME280;5229;41.820;23.490;2023-02-20T05:30:25;90348.84;;;9.34;44.54
10366;BME280;5229;41.820;23.490;2023-02-20T05:32:53;90348.84;;;9.34;44.14
10366;BME280;5229;41.820;23.490;2023-02-20T05:35:20;90347.31;;;9.33;44.26
10366;BME280;5229;41.820;23.490;2023-02-20T05:37:47;90344.53;;;9.30;44.59
10366;BME280;5229;41.820;23.490;2023-02-20T05:40:14;90358.81;;;9.27;44.73
10366;BME280;5229;41.820;23.490;2023-02-20T05:42:40;90347.41;;;9.28;44.73
10366;BME280;5229;41.820;23.490;2023-02-20T05:45:08;90357.00;;;9.28;44.43
10366;BME280;5229;41.820;23.490;2023-02-20T05:47:35;90361.13;;;9.29;44.74
10366;BME280;5229;41.820;23.490;2023-02-20T05:50:05;90366.50;;;9.32;44.62
10366;BME280;5229;41.820;23.490;2023-02-20T05:52:32;90370.06;;;9.36;44.54
10366;BME280;5229;41.820;23.490;2023-02-20T05:54:58;90387.38;;;9.49;44.50
10366;BME280;5229;41.820;23.490;2023-02-20T05:57:25;90374.53;;;9.58;44.35
10366;BME280;5229;41.820;23.490;2023-02-20T05:59:52;90379.75;;;9.71;44.01
10366;BME280;5229;41.820;23.490;2023-02-20T06:02:19;90366.47;;;10.00;43.29
10366;BME280;5229;41.820;23.490;2023-02-20T06:04:46;90373.31;;;10.89;42.43
10366;BME280;5229;41.820;23.490;2023-02-20T06:07:14;90368.72;;;12.59;39.99
10366;BME280;5229;41.820;23.490;2023-02-20T06:09:41;90375.84;;;14.31;36.84
10366;BME280;5229;41.820;23.490;2023-02-20T06:12:08;90380.91;;;15.51;34.93
10366;BME280;5229;41.820;23.490;2023-02-20T06:14:36;90388.81;;;15.99;34.22
10366;BME280;5229;41.820;23.490;2023-02-20T06:17:02;90401.75;;;15.71;33.85
10366;BME280;5229;41.820;23.490;2023-02-20T06:19:29;90392.94;;;14.90;35.08
10366;BME280;5229;41.820;23.490;2023-02-20T06:21:56;90385.41;;;14.68;35.39
10366;BME280;5229;41.820;23.490;2023-02-20T06:24:25;90390.91;;;14.75;35.14
10366;BME280;5229;41.820;23.490;2023-02-20T06:26:53;90393.75;;;15.03;35.16
10366;BME280;5229;41.820;23.490;2023-02-20T06:29:20;90388.03;;;15.09;34.65
10366;BME280;5229;41.820;23.490;2023-02-20T06:31:47;90391.94;;;15.15;34.63
10366;BME280;5229;41.820;23.490;2023-02-20T06:34:15;90400.09;;;15.14;34.89
10366;BME280;5229;41.820;23.490;2023-02-20T06:36:42;90393.44;;;15.04;34.54
10366;BME280;5229;41.820;23.490;2023-02-20T06:39:10;90403.69;;;14.68;34.85
10366;BME280;5229;41.820;23.490;2023-02-20T06:41:39;90399.66;;;14.21;35.85
10366;BME280;5229;41.820;23.490;2023-02-20T06:44:06;90405.81;;;13.79;36.23
10366;BME280;5229;41.820;23.490;2023-02-20T06:46:33;90411.69;;;13.59;36.88
10366;BME280;5229;41.820;23.490;2023-02-20T06:49:00;90413.69;;;13.62;36.69
10366;BME280;5229;41.820;23.490;2023-02-20T06:51:28;90410.41;;;13.82;36.54
10366;BME280;5229;41.820;23.490;2023-02-20T06:53:56;90402.47;;;14.07;35.92
10366;BME280;5229;41.820;23.490;2023-02-20T06:56:25;90389.38;;;14.74;34.96
10366;BME280;5229;41.820;23.490;2023-02-20T06:58:54;90377.47;;;15.83;33.38
10366;BME280;5229;41.820;23.490;2023-02-20T07:01:22;90383.53;;;17.07;31.67
10366;BME280;5229;41.820;23.490;2023-02-20T07:03:51;90391.75;;;18.35;29.89
10366;BME280;5229;41.820;23.490;2023-02-20T07:06:19;90382.72;;;19.55;28.54
10366;BME280;5229;41.820;23.490;2023-02-20T07:08:46;90372.03;;;20.31;27.04
10366;BME280;5229;41.820;23.490;2023-02-20T07:11:14;90396.94;;;20.82;26.42
10366;BME280;5229;41.820;23.490;2023-02-20T07:13:42;90398.78;;;21.04;25.74
10366;BME280;5229;41.820;23.490;2023-02-20T07:16:10;90412.00;;;21.08;25.88
10366;BME280;5229;41.820;23.490;2023-02-20T07:18:37;90413.94;;;21.11;25.32
10366;BME280;5229;41.820;23.490;2023-02-20T07:21:04;90405.97;;;21.33;25.51
10366;BME280;5229;41.820;23.490;2023-02-20T07:23:31;90411.06;;;21.49;24.90
10366;BME280;5229;41.820;23.490;2023-02-20T07:25:58;90416.00;;;21.54;24.77
10366;BME280;5229;41.820;23.490;2023-02-20T07:28:24;90409.00;;;21.35;24.43
10366;BME280;5229;41.820;23.490;2023-02-20T07:30:51;90413.19;;;21.10;24.53
10366;BME280;5229;41.820;23.490;2023-02-20T07:33:19;90409.34;;;21.04;24.49
10366;BME280;5229;41.820;23.490;2023-02-20T07:35:46;90410.34;;;21.22;24.69
10366;BME280;5229;41.820;23.490;2023-02-20T07:38:13;90408.28;;;21.38;23.94
10366;BME280;5229;41.820;23.490;2023-02-20T07:40:41;90412.13;;;21.44;23.44
10366;BME280;5229;41.820;23.490;2023-02-20T07:43:08;90419.66;;;21.42;23.43
10366;BME280;5229;41.820;23.490;2023-02-20T07:45:35;90419.47;;;21.28;23.51
10366;BME280;5229;41.820;23.490;2023-02-20T07:48:03;90412.59;;;20.72;23.67
10366;BME280;5229;41.820;23.490;2023-02-20T07:50:31;90405.41;;;20.46;23.86
10366;BME280;5229;41.820;23.490;2023-02-20T07:52:58;90409.94;;;20.46;23.86
10366;BME280;5229;41.820;23.490;2023-02-20T07:55:25;90398.13;;;20.36;23.87
10366;BME280;5229;41.820;23.490;2023-02-20T07:57:51;90402.16;;;20.30;23.71
10366;BME280;5229;41.820;23.490;2023-02-20T08:00:23;90410.50;;;20.36;23.77
10366;BME280;5229;41.820;23.490;2023-02-20T08:02:50;90425.72;;;20.68;23.28
10366;BME280;5229;41.820;23.490;2023-02-20T08:05:17;90415.47;;;20.63;23.09
10366;BME280;5229;41.820;23.490;2023-02-20T08:07:46;90414.25;;;20.12;23.43
10366;BME280;5229;41.820;23.490;2023-02-20T08:10:14;90423.69;;;19.75;23.88
10366;BME280;5229;41.820;23.490;2023-02-20T08:12:41;90428.53;;;19.54;24.34
10366;BME280;5229;41.820;23.490;2023-02-20T08:15:08;90419.97;;;19.76;23.87
10366;BME280;5229;41.820;23.490;2023-02-20T08:17:36;90422.75;;;20.05;23.61
10366;BME280;5229;41.820;23.490;2023-02-20T08:20:04;90416.59;;;20.17;23.49
10366;BME280;5229;41.820;23.490;2023-02-20T08:22:31;90413.19;;;20.39;23.14
10366;BME280;5229;41.820;23.490;2023-02-20T08:24:59;90414.84;;;20.47;22.81
10366;BME280;5229;41.820;23.490;2023-02-20T08:27:28;90414.53;;;20.52;22.36
10366;BME280;5229;41.820;23.490;2023-02-20T08:29:55;90412.94;;;20.70;22.38
10366;BME280;5229;41.820;23.490;2023-02-20T08:32:22;90416.06;;;20.53;22.22
10366;BME280;5229;41.820;23.490;2023-02-20T08:34:48;90416.19;;;19.96;22.95
10366;BME280;5229;41.820;23.490;2023-02-20T08:37:15;90429.09;;;19.63;23.05
10366;BME280;5229;41.820;23.490;2023-02-20T08:39:42;90431.66;;;19.59;23.38
10366;BME280;5229;41.820;23.490;2023-02-20T08:42:14;90437.25;;;19.39;23.40
10366;BME280;5229;41.820;23.490;2023-02-20T08:44:41;90438.56;;;19.48;23.54
10366;BME280;5229;41.820;23.490;2023-02-20T08:47:08;90437.53;;;19.91;23.20
10366;BME280;5229;41.820;23.490;2023-02-20T08:49:35;90441.22;;;20.28;22.72
10366;BME280;5229;41.820;23.490;2023-02-20T08:52:01;90442.53;;;20.60;22.53
10366;BME280;5229;41.820;23.490;2023-02-20T08:54:30;90435.72;;;21.04;22.17
10366;BME280;5229;41.820;23.490;2023-02-20T08:56:57;90436.50;;;21.34;22.22
10366;BME280;5229;41.820;23.490;2023-02-20T08:59:25;90429.66;;;21.59;21.63
10366;BME280;5229;41.820;23.490;2023-02-20T09:01:52;90431.63;;;21.66;21.74
10366;BME280;5229;41.820;23.490;2023-02-20T09:04:19;90434.97;;;21.33;22.07
10366;BME280;5229;41.820;23.490;2023-02-20T09:06:48;90438.00;;;21.61;22.03
10366;BME280;5229;41.820;23.490;2023-02-20T09:09:15;90427.78;;;21.89;21.56
10366;BME280;5229;41.820;23.490;2023-02-20T09:11:41;90429.66;;;22.22;21.56
10366;BME280;5229;41.820;23.490;2023-02-20T09:14:08;90433.88;;;22.66;21.27
10366;BME280;5229;41.820;23.490;2023-02-20T09:16:36;90434.06;;;23.45;20.89
10366;BME280;5229;41.820;23.490;2023-02-20T09:19:06;90419.66;;;24.18;20.23
10366;BME280;5229;41.820;23.490;2023-02-20T09:21:33;90421.28;;;24.82;19.76
10366;BME280;5229;41.820;23.490;2023-02-20T09:24:00;90424.31;;;25.01;19.10
10366;BME280;5229;41.820;23.490;2023-02-20T09:26:26;90432.28;;;25.22;19.25
10366;BME280;5229;41.820;23.490;2023-02-20T09:28:53;90439.47;;;25.43;19.08
10366;BME280;5229;41.820;23.490;2023-02-20T09:31:20;90460.69;;;25.71;19.10
10366;BME280;5229;41.820;23.490;2023-02-20T09:33:48;90464.31;;;26.26;18.28
10366;BME280;5229;41.820;23.490;2023-02-20T09:36:15;90445.84;;;26.74;17.96
10366;BME280;5229;41.820;23.490;2023-02-20T09:38:41;90451.44;;;26.90;17.66
10366;BME280;5229;41.820;23.490;2023-02-20T09:41:13;90447.03;;;27.20;17.84
10366;BME280;5229;41.820;23.490;2023-02-20T09:43:49;90460.19;;;27.82;17.36
10366;BME280;5229;41.820;23.490;2023-02-20T09:46:21;90455.44;;;28.03;17.38
10366;BME280;5229;41.820;23.490;2023-02-20T09:49:00;90460.94;;;28.23;16.65
10366;BME280;5229;41.820;23.490;2023-02-20T09:51:30;90462.38;;;28.28;16.81
10366;BME280;5229;41.820;23.490;2023-02-20T09:54:02;90459.53;;;28.45;16.40
10366;BME280;5229;41.820;23.490;2023-02-20T09:56:34;90454.47;;;28.54;16.36
10366;BME280;5229;41.820;23.490;2023-02-20T09:59:07;90455.09;;;28.32;16.11
10366;BME280;5229;41.820;23.490;2023-02-20T10:01:38;90449.84;;;28.25;16.34
10366;BME280;5229;41.820;23.490;2023-02-20T10:04:10;90455.09;;;28.32;16.32
10366;BME280;5229;41.820;23.490;2023-02-20T10:06:39;90442.41;;;28.73;16.14
10366;BME280;5229;41.820;23.490;2023-02-20T10:09:09;90441.94;;;29.31;15.70
10366;BME280;5229;41.820;23.490;2023-02-20T10:11:48;90448.84;;;29.51;15.47
10366;BME280;5229;41.820;23.490;2023-02-20T10:14:46;90443.00;;;29.60;15.35
10366;BME280;5229;41.820;23.490;2023-02-20T10:17:21;90441.97;;;29.77;15.02
10366;BME280;5229;41.820;23.490;2023-02-20T10:19:59;90437.81;;;29.72;15.15
10366;BME280;5229;41.820;23.490;2023-02-20T10:22:31;90457.00;;;29.44;14.92
10366;BME280;5229;41.820;23.490;2023-02-20T10:25:08;90459.31;;;29.42;15.57
10366;BME280;5229;41.820;23.490;2023-02-20T10:27:44;90459.22;;;29.72;15.89
10366;BME280;5229;41.820;23.490;2023-02-20T10:30:19;90461.97;;;29.88;15.28
10366;BME280;5229;41.820;23.490;2023-02-20T10:32:51;90449.97;;;29.31;14.94
10366;BME280;5229;41.820;23.490;2023-02-20T10:35:28;90449.22;;;28.74;15.17
10366;BME280;5229;41.820;23.490;2023-02-20T10:38:03;90458.13;;;28.34;15.37
10366;BME280;5229;41.820;23.490;2023-02-20T10:40:35;90462.53;;;28.51;15.24
10366;BME280;5229;41.820;23.490;2023-02-20T10:43:07;90464.47;;;28.77;15.46
10366;BME280;5229;41.820;23.490;2023-02-20T10:45:43;90463.28;;;29.08;15.01
10366;BME280;5229;41.820;23.490;2023-02-20T10:48:13;90463.34;;;29.31;15.08
10366;BME280;5229;41.820;23.490;2023-02-20T10:50:46;90451.09;;;29.07;14.86
10366;BME280;5229;41.820;23.490;2023-02-20T10:53:23;90461.94;;;28.66;15.07
10366;BME280;5229;41.820;23.490;2023-02-20T10:55:57;90470.00;;;28.29;15.22
10366;BME280;5229;41.820;23.490;2023-02-20T10:58:31;90482.88;;;27.12;15.97
10366;BME280;5229;41.820;23.490;2023-02-20T11:01:02;90475.09;;;25.84;17.29
10366;BME280;5229;41.820;23.490;2023-02-20T11:03:35;90461.38;;;24.45;18.00
10366;BME280;5229;41.820;23.490;2023-02-20T11:06:08;90461.56;;;23.27;18.59
10366;BME280;5229;41.820;23.490;2023-02-20T11:08:37;90455.94;;;22.11;19.38
10366;BME280;5229;41.820;23.490;2023-02-20T11:11:23;90464.50;;;21.16;20.37
10366;BME280;5229;41.820;23.490;2023-02-20T11:13:50;90459.69;;;20.51;21.00
10366;BME280;5229;41.820;23.490;2023-02-20T11:16:22;90452.09;;;20.04;21.36
10366;BME280;5229;41.820;23.490;2023-02-20T11:19:01;90457.22;;;19.59;21.76
10366;BME280;5229;41.820;23.490;2023-02-20T11:21:39;90449.09;;;19.14;22.32
10366;BME280;5229;41.820;23.490;2023-02-20T11:24:30;90430.44;;;18.69;22.79
10366;BME280;5229;41.820;23.490;2023-02-20T11:27:01;90437.63;;;18.25;23.17
10366;BME280;5229;41.820;23.490;2023-02-20T11:29:33;90432.69;;;17.93;23.74
10366;BME280;5229;41.820;23.490;2023-02-20T11:32:27;90439.31;;;17.47;24.10
10366;BME280;5229;41.820;23.490;2023-02-20T11:35:24;90449.47;;;16.97;24.52
10366;BME280;5229;41.820;23.490;2023-02-20T11:38:29;90444.28;;;16.49;25.03
10366;BME280;5229;41.820;23.490;2023-02-20T11:41:05;90448.25;;;16.10;24.91
10366;BME280;5229;41.820;23.490;2023-02-20T11:43:34;90455.53;;;15.93;25.08
10366;BME280;5229;41.820;23.490;2023-02-20T11:46:10;90457.75;;;15.70;26.00
10366;BME280;5229;41.820;23.490;2023-02-20T11:48:57;90454.72;;;15.48;26.08
10366;BME280;5229;41.820;23.490;2023-02-20T11:51:33;90439.13;;;15.39;26.11
10366;BME280;5229;41.820;23.490;2023-02-20T11:54:14;90440.97;;;15.18;26.49
10366;BME280;5229;41.820;23.490;2023-02-20T11:56:53;90449.75;;;14.93;26.74
10366;BME280;5229;41.820;23.490;2023-02-20T11:59:35;90447.72;;;14.78;27.07
10366;BME280;5229;41.820;23.490;2023-02-20T12:02:24;90455.44;;;14.66;26.76
10366;BME280;5229;41.820;23.490;2023-02-20T12:05:06;90463.97;;;14.54;26.59
10366;BME280;5229;41.820;23.490;2023-02-20T12:07:37;90459.41;;;14.43;26.84
10366;BME280;5229;41.820;23.490;2023-02-20T12:10:19;90458.50;;;14.39;26.81
10366;BME280;5229;41.820;23.490;2023-02-20T12:12:47;90456.81;;;14.43;27.19
10366;BME280;5229;41.820;23.490;2023-02-20T12:15:15;90441.16;;;14.43;27.63
10366;BME280;5229;41.820;23.490;2023-02-20T12:17:52;90467.59;;;14.33;27.87
10366;BME280;5229;41.820;23.490;2023-02-20T12:20:24;90456.56;;;14.27;27.62
10366;BME280;5229;41.820;23.490;2023-02-20T12:23:01;90455.34;;;14.25;27.22
10366;BME280;5229;41.820;23.490;2023-02-20T12:25:36;90461.03;;;14.18;27.63
10366;BME280;5229;41.820;23.490;2023-02-20T12:28:13;90441.75;;;14.02;28.10
10366;BME280;5229;41.820;23.490;2023-02-20T12:30:53;90452.69;;;13.96;27.63
10366;BME280;5229;41.820;23.490;2023-02-20T12:33:45;90451.44;;;13.93;28.21
10366;BME280;5229;41.820;23.490;2023-02-20T12:36:26;90441.34;;;13.92;28.40
10366;BME280;5229;41.820;23.490;2023-02-20T12:38:57;90438.56;;;13.97;28.01
10366;BME280;5229;41.820;23.490;2023-02-20T12:41:47;90432.56;;;13.96;28.30
10366;BME280;5229;41.820;23.490;2023-02-20T12:44:36;90427.56;;;13.83;27.99
10366;BME280;5229;41.820;23.490;2023-02-20T12:47:15;90433.72;;;13.78;28.50
10366;BME280;5229;41.820;23.490;2023-02-20T12:49:58;90421.44;;;13.79;28.57
10366;BME280;5229;41.820;23.490;2023-02-20T12:52:48;90418.56;;;13.72;28.60
10366;BME280;5229;41.820;23.490;2023-02-20T12:55:23;90425.91;;;13.70;28.46
10366;BME280;5229;41.820;23.490;2023-02-20T12:58:14;90423.63;;;13.60;28.38
10366;BME280;5229;41.820;23.490;2023-02-20T13:00:45;90426.41;;;13.55;28.58
10366;BME280;5229;41.820;23.490;2023-02-20T13:03:18;90425.66;;;13.46;29.58
10366;BME280;5229;41.820;23.490;2023-02-20T13:05:47;90427.66;;;13.40;29.90
10366;BME280;5229;41.820;23.490;2023-02-20T13:08:17;90430.44;;;13.35;29.11
10366;BME280;5229;41.820;23.490;2023-02-20T13:10:51;90426.75;;;13.28;29.73
10366;BME280;5229;41.820;23.490;2023-02-20T13:13:20;90432.31;;;13.18;30.42
10366;BME280;5229;41.820;23.490;2023-02-20T13:15:55;90423.25;;;13.07;30.61
10366;BME280;5229;41.820;23.490;2023-02-20T13:18:31;90419.09;;;12.97;30.73
10366;BME280;5229;41.820;23.490;2023-02-20T13:21:02;90421.38;;;12.90;30.45
10366;BME280;5229;41.820;23.490;2023-02-20T13:23:32;90427.06;;;12.84;31.29
10366;BME280;5229;41.820;23.490;2023-02-20T13:25:59;90421.56;;;12.77;31.24
10366;BME280;5229;41.820;23.490;2023-02-20T13:28:39;90424.16;;;12.68;31.50